Maldives Meteorological Service

SYNOP

Station Code SYNOP
43555
AAXX 18154 43555 42470 42507 10294 20242 30108 40110 82231 333 58007 82818=
43533
AAXX 18154 43533 32465 72906 10286 20252 30105 40107 82232 333 58008 82818 87077=
43577
AAXX 18154 43577 41459 71608 10256 20239 30117 40119 76186 83972 333 58011 82817 81918 84362 87076=
43588
AAXX 18154 43588 41462 61604 10284 20256 30114 40115 70182 83938 333 58007 82818 81919 87277=
43599
AAXX 18154 43599 42460 41608 10272 20237 30117 40119 82201 333 58009 82818 83077=
Last Updated : 2019-09-18 20:01:28